Portada
METAR-TAF:

METAR-TAF

Aeroports :

Shōnai, Japó

latitud: 38-49N, longitud: 139-47E, altitud: 22 m

Observació

L'informe es va fer fa 22 minuts, a les 03:00 UTC
Vent 5 kt del Nord-Oest, variant entre Oest/Nord-Oest i Nord
Temperatura 16°C
Humitat 59%
Pressió 1020 hPa
Visibilitat 10 km o més
Escasses núvols a una alçada de 3500 ft
Núvols disperses a una alçada de 4500 ft
Cel ennuvolat

METAR: RJSY 270300Z 32005KT 300V010 9999 FEW035 SCT045 BKN/// 16/08 Q1020

Hora: 12:22 (03:22 UTC)


TAF: manca

Observacions i pronòstics meteorològics de més de 4000 aeroports (METAR i TAF).

Les estacions disponibles són els punts grocs i vermells al mapa.

Posi el ratolí al punt desitjat per veure el nom de l'estació.

Feu clic per veure les observacions i els pronòstics meteorològics.

Per canviar el mapa: feu clic els botons verds amb una creu de color negre per apropar; al botó verd amb un guió per allunyar la imatge; o en les fletxes verdes per a mapes adjacents.


METAR-TAF: